Jasper S — V2CQ4 — position and weather

sailwx.info

Track history (hours):
 
Tides and Currents Weather Stations Pressure Air Temp Water Temp Dewpoint Dewpoint Depression Visibility Wind Speed Wind Dir Waves Ship Positions

Jasper S

Last reported at 2016-Jul-29 03:19 UTC. Time now 2016-Jul-29 07:56 UTC.
Position N 36°42' E 005°10'.

Length 148 m; draft 9.1 m.

Type: Ship (hazmat cat A). MMSI: 305079000.

Date/timePositionNaut miles runAvg speedWind from/ knotsBaromVisibWave heightAir tempDewpointWater temp
2016-Jul-29 03:19N 36°42' E 005°10'0 0.0
2016-Jul-28 20:13N 36°42' E 005°10'0 0.0
2016-Jul-28 19:19N 36°42' E 005°10'  
2016-Jul-20 17:33N 36°50' E 005°02'1313.2
2016-Jul-20 16:33N 36°56' E 004°48'1312.7
2016-Jul-20 15:34N 37°03' E 004°34'1313.3
2016-Jul-20 14:33N 37°09' E 004°20'1313.4
2016-Jul-20 13:33N 37°16' E 004°05'1313.4
2016-Jul-20 12:33N 37°23' E 003°51'1313.5
2016-Jul-20 11:33N 37°30' E 003°36'1313.1
2016-Jul-20 10:33N 37°36' E 003°22'1513.4
2016-Jul-20 09:28N 37°44' E 003°06'1313.6
2016-Jul-20 08:33N 37°50' E 002°52'1313.5
2016-Jul-20 07:33N 37°57' E 002°38'1313.4
2016-Jul-20 06:34N 38°03' E 002°23'1313.4
2016-Jul-20 05:34N 38°10' E 002°08'1413.5
2016-Jul-20 04:33N 38°17' E 001°54'1313.4
2016-Jul-20 03:33N 38°24' E 001°39'1313.3
2016-Jul-20 02:33N 38°31' E 001°24'1313.0
2016-Jul-20 01:33N 38°38' E 001°10'1413.1
2016-Jul-20 00:31N 38°46' E 000°56'1312.8
2016-Jul-19 23:30N 38°53' E 000°42'1213.2
2016-Jul-19 22:33N 39°00' E 000°29'1414.0
2016-Jul-19 21:33N 39°09' E 000°15'1414.1
2016-Jul-19 20:34N 39°16' W 000°00'1414.4
2016-Jul-19 19:33N 39°25' W 000°15'3 2.8
2016-Jul-19 18:30N 39°26' W 000°19'0 0.0
2016-Jul-19 17:33N 39°26' W 000°19'0 0.0
2016-Jul-19 16:27N 39°26' W 000°19'0 0.0
2016-Jul-19 15:33N 39°26' W 000°19'0 0.0
2016-Jul-19 14:33N 39°26' W 000°19'0 0.0
2016-Jul-19 13:33N 39°26' W 000°19'0 0.0
2016-Jul-19 12:30N 39°26' W 000°19'1 0.6
2016-Jul-19 11:30N 39°26' W 000°20'0 0.0
2016-Jul-19 10:33N 39°26' W 000°20'0 0.0
2016-Jul-19 09:30N 39°26' W 000°20'0 0.0
2016-Jul-19 08:33N 39°26' W 000°20'0 0.0
2016-Jul-19 07:30N 39°26' W 000°20'0 0.0
2016-Jul-19 04:33N 39°26' W 000°20'6 6.3
2016-Jul-19 03:33N 39°26' W 000°11'  
Track history (hours):
 
Tides and Currents Weather Stations Pressure Air Temp Water Temp Dewpoint Dewpoint Depression Visibility Wind Speed Wind Dir Waves Ship Positions

Jasper S

Last reported at 2016-Jul-29 03:19 UTC. Time now 2016-Jul-29 07:56 UTC.
Position N 36°42' E 005°10'.

Length 148 m; draft 9.1 m.

Type: Ship (hazmat cat A). MMSI: 305079000.

Date/timePositionNaut miles runAvg speedWind from/ knotsBaromVisibWave heightAir tempDewpointWater temp
2016-Jul-29 03:19N 36°42' E 005°10'0 0.0
2016-Jul-28 20:13N 36°42' E 005°10'0 0.0
2016-Jul-28 19:19N 36°42' E 005°10'  
2016-Jul-20 17:33N 36°50' E 005°02'1313.2
2016-Jul-20 16:33N 36°56' E 004°48'1312.7
2016-Jul-20 15:34N 37°03' E 004°34'1313.3
2016-Jul-20 14:33N 37°09' E 004°20'1313.4
2016-Jul-20 13:33N 37°16' E 004°05'1313.4
2016-Jul-20 12:33N 37°23' E 003°51'1313.5
2016-Jul-20 11:33N 37°30' E 003°36'1313.1
2016-Jul-20 10:33N 37°36' E 003°22'1513.4
2016-Jul-20 09:28N 37°44' E 003°06'1313.6
2016-Jul-20 08:33N 37°50' E 002°52'1313.5
2016-Jul-20 07:33N 37°57' E 002°38'1313.4
2016-Jul-20 06:34N 38°03' E 002°23'1313.4
2016-Jul-20 05:34N 38°10' E 002°08'1413.5
2016-Jul-20 04:33N 38°17' E 001°54'1313.4
2016-Jul-20 03:33N 38°24' E 001°39'1313.3
2016-Jul-20 02:33N 38°31' E 001°24'1313.0
2016-Jul-20 01:33N 38°38' E 001°10'1413.1
2016-Jul-20 00:31N 38°46' E 000°56'1312.8
2016-Jul-19 23:30N 38°53' E 000°42'1213.2
2016-Jul-19 22:33N 39°00' E 000°29'1414.0
2016-Jul-19 21:33N 39°09' E 000°15'1414.1
2016-Jul-19 20:34N 39°16' W 000°00'1414.4
2016-Jul-19 19:33N 39°25' W 000°15'3 2.8
2016-Jul-19 18:30N 39°26' W 000°19'0 0.0
2016-Jul-19 17:33N 39°26' W 000°19'0 0.0
2016-Jul-19 16:27N 39°26' W 000°19'0 0.0
2016-Jul-19 15:33N 39°26' W 000°19'0 0.0
2016-Jul-19 14:33N 39°26' W 000°19'0 0.0
2016-Jul-19 13:33N 39°26' W 000°19'0 0.0
2016-Jul-19 12:30N 39°26' W 000°19'1 0.6
2016-Jul-19 11:30N 39°26' W 000°20'0 0.0
2016-Jul-19 10:33N 39°26' W 000°20'0 0.0
2016-Jul-19 09:30N 39°26' W 000°20'0 0.0
2016-Jul-19 08:33N 39°26' W 000°20'0 0.0
2016-Jul-19 07:30N 39°26' W 000°20'0 0.0
2016-Jul-19 04:33N 39°26' W 000°20'6 6.3
2016-Jul-19 03:33N 39°26' W 000°11'  

Dump ship's entire track history